Terminal Aerodrome Forecast
Issued by NWS

Home | Current Version | Previous Version | Text Only | Print | Product List | Glossary On
Versions: 1 2 3 4 5 6 7 8 9 10 11 12 13 14 15
000
FTUS43 KGLD 251720
TAFMCK
TAF
KMCK 251720Z 2518/2618 11006KT P6SM SCT250
     FM260000 03005KT P6SM SCT200
      TEMPO 2604/2607 5SM -SHRA BKN060
     FM260900 03008KT 3SM BR SCT010
     FM261400 06005KT P6SM VCSH SCT040 SCT120=

USA.gov is the U.S. government's official web portal to all federal, state and local government web resources and services.